Startpagina
METAR-TAF:

METAR-TAF

Vliegvelden :

Karachi, Pakistan

breedte: 24-54N, lengte: 067-08E, hoogte: 21 m

Actueel weer

Dit bericht is 42 minuten geleden gemaakt, om 11:25 UTC
Wind 15 kt uit het westen
Temperatuur 42°C
Vochtigheid 7%
Druk 1002 hPa
Zicht: 5000 m
verspreid stof

METAR: OPKC 201125Z 26015KT 5000 DU NSC 42/M01 Q1002 NOSIG

Tijdstip: 17:07 (12:07 UTC)

Verwachting

Dit bericht is 2 uur en het 7 minuten geleden gemaakt, om 10:00 UTC
Verwachting geldig van 20 om 12 UTC tot 21 om 18 UTC
Wind 5 kt uit het westen met uitschieters tot 15 kt
Zicht: 5000 m
Heiigheid
Van UTC
Wind 13 kt uit het noorden
Zicht: 4000 m
Heiigheid
Van UTC
Wind 5 kt uit het westen met uitschieters tot 15 kt
Zicht: 6000 m

TAF: OPKC 201000Z 2012/2118 28005G15KT 5000 HZ NSC FM 022000 36013KT 4000 HZ NSC FM 210800 26005G15KT 6000 NSC

Waarnemingen en weersverwachtingen van meer dan 4000 vliegvelden (METAR en TAF).

De beschikbare stations zijn de gele en rode punten op de kaart.

Ga met uw muis naar het station om de naam te zien.

Klik dan om waarnemingen en weersverwachtingen te zien.

kaart wijzigen: klik op de groene knoppen met een zwart kruis om in te zoomen, op de groene knop met een streepje om uit te zoomen of op de groene pijlen voor aangrenzende kaarten.


METAR-TAF: